Time;durP1;ratioP1;P1;durP2;ratioP2;P2;SDS_P1;SDS_P2;PMS_P1;PMS_P2;Temp;Humidity;BMP_temperature;BMP_pressure;BME280_temperature;BME280_humidity;BME280_pressure;Samples;Min_cycle;Max_cycle;Signal;HPM_P1;HPM_P2
2023/01/22 00:00:58;;;;;;;10.93;5.55;;;;;;;2.06;100.00;98781.66;4532988;31;20167;-73
2023/01/22 00:03:25;;;;;;;17.98;5.85;;;;;;;2.12;100.00;98781.34;4532990;31;20451;-73
2023/01/22 00:05:52;;;;;;;11.35;5.25;;;;;;;2.08;100.00;98785.00;4533037;31;20151;-73
2023/01/22 00:08:19;;;;;;;13.25;6.10;;;;;;;2.16;100.00;98782.84;4532962;31;20175;-73
2023/01/22 00:10:50;;;;;;;10.13;5.55;;;;;;;2.13;100.00;98791.63;4532806;31;20095;-73
2023/01/22 00:13:18;;;;;;;12.40;5.37;;;;;;;2.08;100.00;98785.00;4532801;31;20075;-73
2023/01/22 00:15:45;;;;;;;9.18;5.22;;;;;;;2.16;100.00;98793.16;4533000;31;20474;-73
2023/01/22 00:18:13;;;;;;;10.48;4.80;;;;;;;2.09;100.00;98790.09;4532820;31;20513;-73
2023/01/22 00:20:40;;;;;;;10.02;5.80;;;;;;;2.07;100.00;98786.75;4533220;31;20111;-73
2023/01/22 00:23:07;;;;;;;11.02;4.65;;;;;;;2.06;100.00;98784.25;4532623;31;20159;-73
2023/01/22 00:25:35;;;;;;;11.32;5.50;;;;;;;2.04;100.00;98792.09;4533058;31;20096;-73
2023/01/22 00:28:02;;;;;;;12.50;5.28;;;;;;;2.08;100.00;98795.34;4532703;31;20111;-73
2023/01/22 00:30:29;;;;;;;11.40;5.20;;;;;;;1.94;100.00;98793.50;4532995;31;20155;-73
2023/01/22 00:32:57;;;;;;;13.90;5.75;;;;;;;2.01;100.00;98794.00;4532704;31;20095;-73
2023/01/22 00:35:24;;;;;;;11.25;5.55;;;;;;;2.07;100.00;98793.69;4532764;31;20126;-73
2023/01/22 00:37:51;;;;;;;11.35;5.93;;;;;;;1.98;100.00;98794.19;4532812;31;20163;-73
2023/01/22 00:40:19;;;;;;;10.43;5.37;;;;;;;1.86;100.00;98790.50;4532590;31;20182;-73
2023/01/22 00:42:46;;;;;;;11.25;4.75;;;;;;;2.10;100.00;98798.69;4532745;31;20479;-73
2023/01/22 00:45:14;;;;;;;12.02;5.72;;;;;;;2.17;100.00;98810.34;4532770;31;20170;-73
2023/01/22 00:47:41;;;;;;;11.48;5.28;;;;;;;1.94;100.00;98798.69;4532530;31;20095;-73
2023/01/22 00:50:09;;;;;;;10.85;5.50;;;;;;;1.97;100.00;98795.94;4532725;31;20611;-73
2023/01/22 00:52:36;;;;;;;9.02;5.07;;;;;;;2.03;100.00;98793.03;4532349;31;20083;-73
2023/01/22 00:55:04;;;;;;;12.52;5.22;;;;;;;2.07;100.00;98802.25;4532541;31;20436;-73
2023/01/22 00:57:32;;;;;;;11.43;6.18;;;;;;;2.20;100.00;98804.19;4532624;31;20091;-73
2023/01/22 00:59:59;;;;;;;11.00;5.22;;;;;;;2.25;100.00;98805.59;4532599;31;20087;-73
2023/01/22 01:02:28;;;;;;;8.50;4.75;;;;;;;2.17;100.00;98805.19;4532785;31;20142;-73
2023/01/22 01:04:55;;;;;;;13.52;5.50;;;;;;;2.11;100.00;98808.94;4532603;31;20102;-73
2023/01/22 01:07:23;;;;;;;9.43;5.07;;;;;;;2.11;100.00;98811.50;4532117;31;20814;-73
2023/01/22 01:09:50;;;;;;;11.68;5.72;;;;;;;2.19;100.00;98808.50;4531588;31;20095;-73
2023/01/22 01:12:19;;;;;;;11.30;5.32;;;;;;;2.14;100.00;98815.69;4532383;31;20095;-73
2023/01/22 01:14:46;;;;;;;11.40;5.55;;;;;;;2.13;100.00;98814.00;4532375;31;20143;-73
2023/01/22 01:17:13;;;;;;;10.07;4.97;;;;;;;2.04;100.00;98814.50;4532335;31;20099;-73
2023/01/22 01:19:40;;;;;;;10.27;5.57;;;;;;;2.06;100.00;98823.00;4532426;31;20083;-73
2023/01/22 01:22:08;;;;;;;11.55;5.28;;;;;;;2.16;100.00;98816.44;4532189;31;20125;-73
2023/01/22 01:24:35;;;;;;;7.72;4.65;;;;;;;2.08;100.00;98816.84;4532402;31;20121;-73
2023/01/22 01:27:02;;;;;;;6.43;4.15;;;;;;;2.04;100.00;98814.50;4532448;31;20091;-73
2023/01/22 01:29:29;;;;;;;7.97;4.78;;;;;;;2.04;100.00;98817.91;4532245;31;20099;-73
2023/01/22 01:31:56;;;;;;;10.82;4.95;;;;;;;2.10;100.00;98824.53;4532166;31;20539;-73
2023/01/22 01:34:24;;;;;;;9.48;4.85;;;;;;;2.18;100.00;98818.94;4531952;31;20441;-73
2023/01/22 01:36:51;;;;;;;8.57;4.75;;;;;;;2.14;100.00;98828.63;4532146;31;20119;-73
2023/01/22 01:39:18;;;;;;;9.95;5.00;;;;;;;2.06;100.00;98828.19;4531884;31;20123;-73
2023/01/22 01:41:45;;;;;;;7.03;4.53;;;;;;;2.06;100.00;98821.28;4532277;31;20490;-73
2023/01/22 01:44:12;;;;;;;8.35;4.37;;;;;;;2.04;100.00;98824.84;4531789;31;20091;-73
2023/01/22 01:47:00;;;;;;;10.02;4.90;;;;;;;2.12;100.00;98822.72;4532164;31;20203;-73
2023/01/22 01:49:40;;;;;;;6.68;4.32;;;;;;;2.06;100.00;98825.59;4531748;31;20075;-73
2023/01/22 01:52:10;;;;;;;8.75;4.30;;;;;;;2.23;100.00;98819.53;4530572;31;20204;-73
2023/01/22 01:54:38;;;;;;;10.18;4.35;;;;;;;2.11;100.00;98815.84;4531700;31;20453;-73
2023/01/22 01:57:12;;;;;;;12.48;4.50;;;;;;;2.18;100.00;98813.75;4532012;31;20079;-73
2023/01/22 01:59:40;;;;;;;10.57;5.00;;;;;;;2.11;100.00;98810.69;4531754;31;20122;-73
2023/01/22 02:02:08;;;;;;;7.85;3.75;;;;;;;2.16;100.00;98808.69;4531742;31;20084;-73
2023/01/22 02:04:35;;;;;;;9.25;4.57;;;;;;;2.17;100.00;98809.53;4531586;31;20099;-71
2023/01/22 02:07:04;;;;;;;7.00;4.12;;;;;;;2.23;100.00;98809.19;4531538;31;20099;-73
2023/01/22 02:09:31;;;;;;;5.72;3.60;;;;;;;2.05;100.00;98811.03;4526604;31;20512;-73
2023/01/22 02:11:58;;;;;;;9.70;4.22;;;;;;;2.04;100.00;98809.34;4515656;31;20088;-73
2023/01/22 02:14:30;;;;;;;10.07;4.57;;;;;;;2.04;100.00;98809.34;4514198;31;20138;-73
2023/01/22 02:17:10;;;;;;;10.07;4.30;;;;;;;2.11;100.00;98808.09;4514421;31;20095;-73
2023/01/22 02:19:39;;;;;;;7.75;4.32;;;;;;;2.01;100.00;98804.34;4516156;31;20138;-73
2023/01/22 02:22:19;;;;;;;7.03;3.42;;;;;;;2.09;100.00;98799.59;4524835;31;20460;-73
2023/01/22 02:24:47;;;;;;;7.60;4.03;;;;;;;1.99;100.00;98799.25;4532644;31;20500;-73
2023/01/22 02:27:14;;;;;;;9.48;4.37;;;;;;;1.70;100.00;98798.22;4533785;31;20138;-73
2023/01/22 02:29:41;;;;;;;7.57;4.10;;;;;;;1.70;100.00;98795.66;4534073;31;20127;-73
2023/01/22 02:32:09;;;;;;;7.93;3.75;;;;;;;1.67;100.00;98796.63;4533845;31;20100;-73
2023/01/22 02:34:36;;;;;;;7.25;4.18;;;;;;;1.54;100.00;98795.59;4533444;31;20472;-73
2023/01/22 02:37:03;;;;;;;6.70;3.28;;;;;;;1.49;100.00;98793.25;4533843;31;20440;-73
2023/01/22 02:39:30;;;;;;;7.43;3.35;;;;;;;1.42;100.00;98787.59;4533753;31;20593;-73
2023/01/22 02:42:00;;;;;;;7.32;3.90;;;;;;;1.48;100.00;98785.59;4533814;31;20245;-73
2023/01/22 02:44:28;;;;;;;6.50;3.58;;;;;;;1.28;100.00;98789.22;4533951;31;20121;-73
2023/01/22 02:46:56;;;;;;;9.75;3.45;;;;;;;1.27;100.00;98784.94;4533454;31;20094;-72
2023/01/22 02:49:25;;;;;;;5.60;3.35;;;;;;;1.23;100.00;98782.53;4533804;31;20121;-73
2023/01/22 02:51:52;;;;;;;5.75;2.90;;;;;;;1.31;100.00;98787.28;4532532;31;20113;-72
2023/01/22 02:54:19;;;;;;;7.07;3.37;;;;;;;1.26;100.00;98781.53;4533607;31;20103;-73
2023/01/22 02:56:47;;;;;;;5.75;3.15;;;;;;;1.23;100.00;98781.69;4533654;31;20121;-72
2023/01/22 02:59:14;;;;;;;5.40;3.15;;;;;;;1.22;100.00;98786.00;4533418;31;20091;-73
2023/01/22 03:01:41;;;;;;;7.75;3.22;;;;;;;1.28;100.00;98782.28;4533643;31;20122;-73
2023/01/22 03:04:12;;;;;;;5.37;2.67;;;;;;;1.33;100.00;98784.62;4533535;31;20099;-73
2023/01/22 03:06:44;;;;;;;9.80;3.70;;;;;;;1.29;100.00;98778.81;4533347;31;20189;-73
2023/01/22 03:09:14;;;;;;;8.00;3.10;;;;;;;1.08;100.00;98780.72;4533448;31;20142;-73
2023/01/22 03:11:43;;;;;;;6.93;2.92;;;;;;;1.17;100.00;98776.84;4533307;31;20555;-72
2023/01/22 03:22:31;;;;;;;5.43;2.85;;;;;;;1.31;100.00;98771.81;4533315;31;20095;-73
2023/01/22 03:25:00;;;;;;;6.53;3.35;;;;;;;1.30;100.00;98771.88;4533175;31;20117;-73
2023/01/22 03:27:29;;;;;;;6.05;3.17;;;;;;;1.14;100.00;98762.34;4533310;31;20121;-73
2023/01/22 03:29:56;;;;;;;6.68;3.22;;;;;;;1.30;100.00;98766.72;4533638;31;20762;-73
2023/01/22 03:32:24;;;;;;;4.32;2.80;;;;;;;1.29;100.00;98770.19;4532582;31;20130;-73
2023/01/22 03:34:52;;;;;;;4.32;2.55;;;;;;;1.33;100.00;98776.88;4533409;31;20135;-73
2023/01/22 03:37:20;;;;;;;5.28;2.62;;;;;;;1.41;100.00;98772.19;4533119;31;20094;-73
2023/01/22 03:39:49;;;;;;;5.93;3.25;;;;;;;1.39;100.00;98767.09;4533419;31;20204;-73
2023/01/22 03:42:16;;;;;;;5.47;2.90;;;;;;;1.46;100.00;98770.19;4533520;31;20195;-73
2023/01/22 03:44:44;;;;;;;6.28;2.75;;;;;;;1.40;100.00;98771.31;4533242;31;20122;-73
2023/01/22 03:47:11;;;;;;;6.30;2.70;;;;;;;1.40;100.00;98773.91;4533521;31;20110;-73
2023/01/22 03:49:39;;;;;;;5.70;2.62;;;;;;;1.39;100.00;98768.81;4533492;31;20182;-73
2023/01/22 03:52:06;;;;;;;5.30;2.55;;;;;;;1.34;100.00;98761.31;4533051;31;20099;-72
2023/01/22 03:54:33;;;;;;;6.28;3.80;;;;;;;1.37;100.00;98763.75;4533109;31;20123;-72
2023/01/22 03:57:01;;;;;;;6.53;3.00;;;;;;;1.23;100.00;98767.03;4533447;31;20103;-72
2023/01/22 03:59:29;;;;;;;4.50;2.83;;;;;;;1.21;100.00;98771.44;4533160;31;20162;-72
2023/01/22 04:01:56;;;;;;;6.22;3.05;;;;;;;1.23;100.00;98772.19;4533415;31;20079;-72
2023/01/22 04:04:24;;;;;;;5.62;3.60;;;;;;;1.31;100.00;98771.81;4533221;31;20125;-72
2023/01/22 04:06:51;;;;;;;5.60;2.95;;;;;;;1.40;100.00;98773.09;4533392;31;20472;-72
2023/01/22 04:09:18;;;;;;;4.53;2.30;;;;;;;1.41;100.00;98774.75;4533087;31;20532;-72
2023/01/22 04:11:45;;;;;;;5.25;2.67;;;;;;;1.51;100.00;98773.34;4518635;31;20448;-72
2023/01/22 04:14:13;;;;;;;6.78;2.70;;;;;;;1.41;100.00;98774.75;4533262;31;20156;-72
2023/01/22 04:16:41;;;;;;;3.95;2.03;;;;;;;1.35;100.00;98775.09;4533191;31;20797;-72
2023/01/22 04:19:09;;;;;;;4.60;2.75;;;;;;;1.38;100.00;98774.91;4533207;31;20087;-72
2023/01/22 04:21:37;;;;;;;6.00;2.53;;;;;;;1.36;100.00;98776.72;4533067;31;20174;-72
2023/01/22 04:24:07;;;;;;;4.82;2.20;;;;;;;1.34;100.00;98775.97;4533302;31;20094;-72
2023/01/22 04:26:34;;;;;;;4.40;2.45;;;;;;;1.36;100.00;98774.16;4533234;31;20766;-72
2023/01/22 04:29:02;;;;;;;3.40;2.30;;;;;;;1.35;100.00;98769.91;4533124;31;20079;-72
2023/01/22 04:31:29;;;;;;;5.95;2.67;;;;;;;1.43;100.00;98772.94;4533048;31;20103;-72
2023/01/22 04:33:57;;;;;;;3.95;2.45;;;;;;;1.37;100.00;98775.81;4531782;31;20175;-72
2023/01/22 04:36:24;;;;;;;5.40;2.30;;;;;;;1.37;100.00;98778.41;4533011;31;20452;-72
2023/01/22 04:38:54;;;;;;;4.37;2.62;;;;;;;1.35;100.00;98781.06;4533083;31;20581;-72
2023/01/22 04:41:22;;;;;;;3.72;2.08;;;;;;;1.40;100.00;98783.41;4532810;31;20095;-72
2023/01/22 04:43:49;;;;;;;3.85;2.17;;;;;;;1.43;100.00;98778.09;4532731;31;20119;-72
2023/01/22 04:46:16;;;;;;;5.62;2.78;;;;;;;1.50;100.00;98781.19;4532903;31;20436;-72
2023/01/22 04:48:45;;;;;;;4.50;2.28;;;;;;;1.13;100.00;98788.22;4532826;31;20096;-72
2023/01/22 04:51:12;;;;;;;6.32;2.70;;;;;;;1.26;100.00;98781.53;4532911;31;20156;-72
2023/01/22 04:53:39;;;;;;;5.60;3.12;;;;;;;1.20;100.00;98772.34;4532755;31;20122;-72
2023/01/22 04:56:07;;;;;;;4.20;2.55;;;;;;;1.15;100.00;98776.06;4532945;31;20611;-72
2023/01/22 04:58:34;;;;;;;6.00;2.28;;;;;;;1.09;100.00;98774.66;4532784;31;20118;-72
2023/01/22 05:01:01;;;;;;;3.90;2.15;;;;;;;1.16;100.00;98775.16;4532749;31;20133;-71
2023/01/22 05:03:29;;;;;;;4.65;2.55;;;;;;;1.15;100.00;98779.50;4532876;31;20484;-71
2023/01/22 05:05:56;;;;;;;7.35;3.08;;;;;;;1.28;100.00;98778.88;4532379;31;20414;-72
2023/01/22 05:08:23;;;;;;;3.72;2.37;;;;;;;1.29;100.00;98783.09;4532495;31;20154;-72
2023/01/22 05:10:50;;;;;;;4.82;2.40;;;;;;;1.34;100.00;98783.72;4532521;31;20598;-72
2023/01/22 05:13:18;;;;;;;4.22;2.25;;;;;;;1.42;100.00;98791.91;4532697;31;20095;-72
2023/01/22 05:15:45;;;;;;;3.75;2.03;;;;;;;1.34;100.00;98799.22;4532369;31;20161;-71
2023/01/22 05:18:12;;;;;;;4.85;2.03;;;;;;;1.49;100.00;98801.00;4532462;31;20401;-72
2023/01/22 05:20:40;;;;;;;5.15;2.00;;;;;;;1.57;100.00;98810.94;4532729;31;20156;-71
2023/01/22 05:23:09;;;;;;;4.18;2.25;;;;;;;1.53;100.00;98805.09;4532566;31;20520;-71
2023/01/22 05:25:36;;;;;;;6.07;2.83;;;;;;;1.63;100.00;98812.37;4532505;31;20550;-72
2023/01/22 05:28:04;;;;;;;5.03;2.30;;;;;;;1.53;100.00;98810.25;4532213;31;20655;-71
2023/01/22 05:30:31;;;;;;;3.25;2.20;;;;;;;1.67;100.00;98814.72;4532649;31;20167;-71
2023/01/22 05:32:59;;;;;;;5.18;2.58;;;;;;;1.65;100.00;98823.44;4532167;31;20174;-71
2023/01/22 05:35:26;;;;;;;5.60;3.05;;;;;;;1.65;100.00;98831.19;4532423;31;20158;-71
2023/01/22 05:37:55;;;;;;;5.20;3.25;;;;;;;1.64;100.00;98839.88;4532073;31;20104;-71
2023/01/22 05:40:23;;;;;;;7.68;3.55;;;;;;;1.64;100.00;98832.12;4532368;31;20453;-72
2023/01/22 05:42:51;;;;;;;7.75;4.00;;;;;;;1.60;100.00;98839.16;4532242;31;20111;-72
2023/01/22 05:45:20;;;;;;;6.25;3.20;;;;;;;1.62;100.00;98841.69;4532322;31;20099;-72
2023/01/22 05:47:52;;;;;;;6.28;3.53;;;;;;;1.65;100.00;98842.37;4532307;31;20433;-72
2023/01/22 05:50:21;;;;;;;6.05;3.62;;;;;;;1.68;100.00;98842.22;4532294;31;20079;-72
2023/01/22 05:52:54;;;;;;;5.00;2.53;;;;;;;1.68;100.00;98856.84;4530440;31;20107;-71
2023/01/22 05:55:21;;;;;;;4.87;3.00;;;;;;;1.74;100.00;98857.37;4533052;31;20202;-72
2023/01/22 05:57:49;;;;;;;4.20;2.50;;;;;;;1.78;100.00;98858.88;4533910;31;20206;-72
2023/01/22 06:00:17;;;;;;;4.82;2.62;;;;;;;1.92;100.00;98862.50;4534134;31;20174;-72
2023/01/22 06:02:47;;;;;;;4.57;2.80;;;;;;;1.94;100.00;98866.69;4534018;31;20098;-72
2023/01/22 06:05:15;;;;;;;6.50;3.22;;;;;;;2.01;100.00;98867.19;4534078;31;20158;-72
2023/01/22 06:07:43;;;;;;;5.47;3.08;;;;;;;1.96;100.00;98864.00;4534128;31;20103;-71
2023/01/22 06:10:11;;;;;;;6.07;2.87;;;;;;;2.07;100.00;98860.84;4533929;31;20746;-72
2023/01/22 06:12:39;;;;;;;4.80;2.75;;;;;;;1.99;100.00;98868.19;4534097;31;20121;-72
2023/01/22 06:15:07;;;;;;;4.25;2.45;;;;;;;1.98;100.00;98871.69;4533988;31;20517;-72
2023/01/22 06:17:35;;;;;;;5.55;2.97;;;;;;;2.01;100.00;98876.69;4534015;31;20588;-72
2023/01/22 06:20:03;;;;;;;4.80;2.72;;;;;;;2.08;100.00;98881.44;4533956;31;20080;-72
2023/01/22 06:22:31;;;;;;;5.30;2.78;;;;;;;2.05;100.00;98880.78;4533753;31;20095;-72
2023/01/22 06:24:59;;;;;;;5.40;2.97;;;;;;;2.02;100.00;98886.13;4533881;31;20539;-72
2023/01/22 06:27:26;;;;;;;8.82;3.37;;;;;;;2.18;100.00;98889.56;4533916;31;20127;-72
2023/01/22 06:29:53;;;;;;;6.93;3.85;;;;;;;2.12;100.00;98895.06;4533992;31;20501;-72
2023/01/22 06:32:21;;;;;;;5.22;3.25;;;;;;;2.16;100.00;98901.72;4533499;31;20480;-72
2023/01/22 06:34:49;;;;;;;6.37;3.72;;;;;;;2.13;100.00;98910.50;4533865;31;20094;-72
2023/01/22 06:37:17;;;;;;;6.70;4.00;;;;;;;2.11;100.00;98914.06;4533855;31;20146;-72
2023/01/22 06:39:44;;;;;;;6.87;3.28;;;;;;;2.15;100.00;98917.31;4533664;31;20099;-72
2023/01/22 06:42:14;;;;;;;7.43;3.67;;;;;;;2.19;100.00;98926.56;4533874;31;20121;-72
2023/01/22 06:44:41;;;;;;;6.03;3.20;;;;;;;2.26;100.00;98922.75;4533625;31;20100;-72
2023/01/22 06:47:08;;;;;;;6.53;3.60;;;;;;;2.27;100.00;98920.09;4533917;31;20133;-72
2023/01/22 06:49:35;;;;;;;7.18;4.00;;;;;;;2.24;100.00;98914.22;4533739;31;20111;-72
2023/01/22 06:52:05;;;;;;;7.12;3.10;;;;;;;2.28;100.00;98914.00;4533891;31;20126;-71
2023/01/22 06:54:33;;;;;;;8.35;3.92;;;;;;;2.28;100.00;98915.75;4533548;31;20199;-72
2023/01/22 06:57:00;;;;;;;7.40;3.30;;;;;;;2.33;100.00;98923.25;4534012;31;20118;-72
2023/01/22 06:59:27;;;;;;;5.93;3.35;;;;;;;2.43;100.00;98924.44;4533746;31;20114;-72
2023/01/22 07:01:54;;;;;;;5.65;3.47;;;;;;;2.54;100.00;98927.28;4533582;31;20515;-72
2023/01/22 07:04:21;;;;;;;5.35;2.95;;;;;;;2.53;100.00;98933.37;4533393;31;20099;-72
2023/01/22 07:06:48;;;;;;;6.25;3.10;;;;;;;2.55;100.00;98943.66;4532373;31;20504;-72
2023/01/22 07:09:16;;;;;;;8.73;4.20;;;;;;;2.64;100.00;98943.97;4532978;31;20122;-72
2023/01/22 07:11:43;;;;;;;6.37;3.12;;;;;;;2.64;100.00;98949.16;4533579;31;20205;-72
2023/01/22 07:14:10;;;;;;;6.10;3.00;;;;;;;2.60;100.00;98955.41;4533166;31;20432;-72
2023/01/22 07:16:37;;;;;;;8.27;3.95;;;;;;;2.65;100.00;98945.66;4533433;31;20477;-72
2023/01/22 07:19:04;;;;;;;8.32;3.62;;;;;;;2.66;100.00;98949.06;4533336;31;20091;-72
2023/01/22 07:21:31;;;;;;;7.95;3.97;;;;;;;2.69;100.00;98953.25;4533230;31;20107;-72
2023/01/22 07:23:58;;;;;;;7.80;3.62;;;;;;;2.68;100.00;98957.59;4533529;31;20091;-72
2023/01/22 07:26:25;;;;;;;7.55;3.65;;;;;;;2.73;100.00;98967.69;4533353;31;20144;-72
2023/01/22 07:28:52;;;;;;;10.32;3.90;;;;;;;2.76;100.00;98972.69;4533232;31;20130;-72
2023/01/22 07:31:20;;;;;;;8.30;4.28;;;;;;;2.80;100.00;98969.00;4533177;31;20457;-72
2023/01/22 07:33:47;;;;;;;7.85;4.47;;;;;;;2.85;100.00;98979.97;4533299;31;20086;-72
2023/01/22 07:36:14;;;;;;;10.50;5.37;;;;;;;2.76;100.00;98972.69;4532885;31;20439;-72
2023/01/22 07:38:41;;;;;;;8.90;4.37;;;;;;;2.74;100.00;98979.69;4533479;31;20511;-72
2023/01/22 07:41:08;;;;;;;10.13;4.90;;;;;;;2.72;100.00;98974.59;4533041;31;20141;-72
2023/01/22 07:43:52;;;;;;;8.05;3.90;;;;;;;2.70;100.00;98978.22;4533317;31;20810;-72
2023/01/22 07:46:19;;;;;;;8.68;4.25;;;;;;;2.78;100.00;98981.22;4533179;31;20143;-72
2023/01/22 07:48:46;;;;;;;9.82;4.37;;;;;;;2.93;100.00;98988.13;4533364;31;20160;-72
2023/01/22 07:51:13;;;;;;;11.77;5.25;;;;;;;3.01;100.00;98993.75;4533109;31;20125;-72
2023/01/22 07:53:41;;;;;;;11.48;5.00;;;;;;;2.96;100.00;98993.13;4532963;31;20121;-72
2023/01/22 07:56:08;;;;;;;11.63;5.80;;;;;;;3.06;100.00;98982.28;4532995;31;20087;-72
2023/01/22 07:58:36;;;;;;;12.50;5.15;;;;;;;2.99;100.00;98990.38;4533216;31;20091;-72
2023/01/22 08:01:05;;;;;;;8.68;4.43;;;;;;;2.98;100.00;98986.16;4532874;31;20122;-72
2023/01/22 08:03:32;;;;;;;9.98;4.85;;;;;;;3.00;100.00;98973.94;4533163;31;20111;-72
2023/01/22 08:06:00;;;;;;;9.48;4.78;;;;;;;3.01;100.00;98979.94;4532977;31;20084;-72
2023/01/22 08:08:27;;;;;;;9.75;4.53;;;;;;;3.00;100.00;98986.87;4533064;31;20107;-72
2023/01/22 08:10:58;;;;;;;9.65;4.75;;;;;;;2.94;100.00;98987.22;4532797;31;20158;-72
2023/01/22 08:13:25;;;;;;;15.38;6.55;;;;;;;3.16;100.00;99002.44;4532978;31;20091;-72
2023/01/22 08:15:53;;;;;;;9.25;5.18;;;;;;;3.31;100.00;99008.47;4533149;31;20091;-72
2023/01/22 08:18:21;;;;;;;11.00;5.60;;;;;;;3.36;100.00;99019.44;4532484;31;20448;-72
2023/01/22 08:20:49;;;;;;;10.23;5.03;;;;;;;3.45;100.00;99033.63;4532726;31;20440;-72
2023/01/22 08:23:16;;;;;;;14.45;5.68;;;;;;;3.44;100.00;99031.13;4532841;31;20416;-72
2023/01/22 08:25:43;;;;;;;12.40;4.70;;;;;;;3.46;100.00;99029.28;4532692;31;20229;-72
2023/01/22 08:28:10;;;;;;;10.60;5.25;;;;;;;3.61;100.00;99025.81;4532981;31;20091;-72
2023/01/22 08:30:37;;;;;;;8.43;5.07;;;;;;;3.63;100.00;99031.75;4532547;31;20099;-73
2023/01/22 08:33:14;;;;;;;9.68;5.87;;;;;;;3.64;100.00;99038.59;4531844;31;20531;-73
2023/01/22 08:35:42;;;;;;;9.13;4.75;;;;;;;3.57;100.00;99042.44;4532569;31;20071;-73
2023/01/22 08:38:09;;;;;;;7.90;4.35;;;;;;;3.75;100.00;99042.34;4532794;31;20137;-73
2023/01/22 08:40:37;;;;;;;8.52;4.87;;;;;;;3.72;100.00;99046.78;4532558;31;20095;-72
2023/01/22 08:43:04;;;;;;;10.05;5.22;;;;;;;3.75;100.00;99050.13;4532818;31;20091;-73
2023/01/22 08:45:31;;;;;;;10.90;5.15;;;;;;;3.64;100.00;99046.38;4532690;31;20122;-72
2023/01/22 08:47:59;;;;;;;11.85;5.45;;;;;;;3.76;100.00;99055.22;4532800;31;20179;-73
2023/01/22 08:50:27;;;;;;;9.50;4.72;;;;;;;3.70;100.00;99058.97;4525831;31;168777;-72
2023/01/22 08:52:56;;;;;;;9.70;5.37;;;;;;;3.58;100.00;99058.84;4532642;31;20099;-72
2023/01/22 08:55:24;;;;;;;13.77;6.00;;;;;;;3.58;100.00;99067.44;4532612;31;20118;-73
2023/01/22 08:57:53;;;;;;;10.80;5.78;;;;;;;3.53;100.00;99067.69;4532626;31;20152;-73
2023/01/22 09:00:21;;;;;;;9.85;4.68;;;;;;;3.48;100.00;99074.06;4532564;31;20099;-73
2023/01/22 09:02:48;;;;;;;11.60;5.50;;;;;;;3.45;100.00;99069.91;4532447;31;20087;-73
2023/01/22 09:05:15;;;;;;;11.15;5.32;;;;;;;3.45;100.00;99076.81;4532786;31;20578;-73
2023/01/22 09:07:42;;;;;;;12.73;6.00;;;;;;;3.55;100.00;99075.38;4532585;31;20554;-73
2023/01/22 09:10:11;;;;;;;16.25;7.60;;;;;;;3.77;100.00;99082.81;4532189;31;20122;-73
2023/01/22 09:12:39;;;;;;;14.27;6.18;;;;;;;3.93;100.00;99079.34;4532466;31;20178;-73
2023/01/22 09:15:06;;;;;;;11.15;5.80;;;;;;;4.23;100.00;99081.94;4532299;31;20094;-73
2023/01/22 09:17:34;;;;;;;10.75;6.37;;;;;;;4.15;100.00;99091.91;4532463;31;20413;-73
2023/01/22 09:20:01;;;;;;;10.13;5.15;;;;;;;4.12;100.00;99092.94;4532314;31;20504;-73
2023/01/22 09:22:28;;;;;;;10.10;5.57;;;;;;;3.96;100.00;99092.94;4532359;31;20170;-73
2023/01/22 09:24:56;;;;;;;9.70;5.80;;;;;;;4.03;100.00;99096.88;4531040;31;20121;-73
2023/01/22 09:27:23;;;;;;;10.00;5.22;;;;;;;4.13;100.00;99091.16;4532179;31;20127;-73
2023/01/22 09:29:52;;;;;;;11.82;5.95;;;;;;;4.12;100.00;99097.25;4531170;31;20095;-73
2023/01/22 09:32:20;;;;;;;13.40;6.47;;;;;;;4.24;100.00;99105.19;4532083;31;20091;-73
2023/01/22 09:34:47;;;;;;;11.30;5.47;;;;;;;4.01;100.00;99098.72;4532075;31;20635;-73
2023/01/22 09:37:14;;;;;;;11.60;6.10;;;;;;;3.95;100.00;99099.09;4532045;31;20167;-73
2023/01/22 09:39:41;;;;;;;13.82;6.97;;;;;;;3.83;100.00;99107.53;4532010;31;20087;-73
2023/01/22 09:42:22;;;;;;;12.52;6.45;;;;;;;3.99;100.00;99103.16;4532290;31;20455;-73
2023/01/22 09:44:53;;;;;;;11.55;6.00;;;;;;;4.07;100.00;99108.75;4530819;31;20122;-73
2023/01/22 09:47:34;;;;;;;13.27;6.62;;;;;;;4.16;100.00;99106.53;4532128;31;20087;-73
2023/01/22 09:50:06;;;;;;;12.37;5.90;;;;;;;4.17;100.00;99105.62;4531943;31;20146;-73
2023/01/22 09:52:36;;;;;;;11.27;6.12;;;;;;;4.11;100.00;99108.56;4530622;31;20461;-73
2023/01/22 09:55:10;;;;;;;11.18;6.45;;;;;;;4.15;100.00;99108.31;4531823;31;20148;-73
2023/01/22 09:57:43;;;;;;;;;;;;;;;4.15;100.00;99115.22;4532349;31;20098;-73
2023/01/22 10:00:16;;;;;;;14.25;6.78;;;;;;;4.20;100.00;99111.47;4530509;31;20038;-73
2023/01/22 10:02:48;;;;;;;15.27;7.03;;;;;;;4.07;100.00;99113.94;4531790;31;20417;-73
2023/01/22 10:05:33;;;;;;;12.85;6.60;;;;;;;4.12;100.00;99105.03;4530454;31;20150;-73
2023/01/22 10:08:05;;;;;;;17.85;7.60;;;;;;;4.22;100.00;99111.38;4531834;31;20134;-73
2023/01/22 10:10:33;;;;;;;16.52;7.87;;;;;;;4.23;100.00;99105.28;4519726;31;20096;-73
2023/01/22 10:13:15;;;;;;;12.00;6.40;;;;;;;4.19;100.00;99106.38;4514310;31;20104;-74
2023/01/22 10:15:42;;;;;;;12.30;6.85;;;;;;;4.22;100.00;99107.03;4514312;31;20113;-73
2023/01/22 10:18:36;;;;;;;14.07;8.00;;;;;;;4.21;100.00;99114.88;4515521;31;20091;-73
2023/01/22 10:21:11;;;;;;;16.58;6.80;;;;;;;4.14;100.00;99114.41;4514788;31;20182;-73
2023/01/22 10:23:38;;;;;;;16.65;7.30;;;;;;;4.30;100.00;99116.09;4530151;31;20182;-73
2023/01/22 10:26:24;;;;;;;21.12;9.40;;;;;;;4.38;100.00;99119.94;4531250;31;20158;-73
2023/01/22 10:28:56;;;;;;;12.98;6.93;;;;;;;4.39;100.00;99111.25;4530487;31;20506;-73
2023/01/22 10:31:30;;;;;;;18.40;7.80;;;;;;;4.38;100.00;99125.13;4530149;31;20195;-73
2023/01/22 10:34:03;;;;;;;11.70;6.25;;;;;;;4.58;100.00;99129.12;4531416;31;20154;-73
2023/01/22 10:36:31;;;;;;;15.57;6.45;;;;;;;4.36;100.00;99129.56;4531221;31;20154;-73
2023/01/22 10:39:16;;;;;;;14.10;7.20;;;;;;;4.39;100.00;99131.13;4531373;31;20114;-73
2023/01/22 10:41:45;;;;;;;15.43;7.60;;;;;;;4.46;100.00;99122.09;4533143;31;20151;-73
2023/01/22 10:44:24;;;;;;;15.02;7.82;;;;;;;4.62;100.00;99124.63;4533637;31;20107;-73
2023/01/22 10:46:53;;;;;;;15.75;7.95;;;;;;;4.62;100.00;99132.41;4528600;31;20571;-73
2023/01/22 10:49:23;;;;;;;12.82;6.68;;;;;;;4.80;100.00;99126.13;4522832;31;20393;-73
2023/01/22 10:51:55;;;;;;;13.13;6.82;;;;;;;4.65;100.00;99132.22;4517564;31;20489;-73
2023/01/22 10:54:43;;;;;;;13.73;7.37;;;;;;;4.49;100.00;99134.03;4503393;31;20147;-73
2023/01/22 10:57:16;;;;;;;15.80;7.87;;;;;;;4.38;100.00;99138.09;4517634;31;20151;-73
2023/01/22 10:59:49;;;;;;;17.80;7.50;;;;;;;4.35;100.00;99140.88;4518078;31;20088;-73
2023/01/22 11:02:22;;;;;;;15.07;7.43;;;;;;;4.42;100.00;99139.59;4517526;31;20092;-73
2023/01/22 11:04:50;;;;;;;22.73;8.35;;;;;;;4.35;100.00;99138.28;4503407;31;20103;-73
2023/01/22 11:07:28;;;;;;;15.80;9.15;;;;;;;4.29;100.00;99137.81;4517589;31;20418;-73
2023/01/22 11:10:13;;;;;;;18.08;8.57;;;;;;;4.38;100.00;99134.69;4510153;31;20451;-73
2023/01/22 11:12:44;;;;;;;20.20;9.55;;;;;;;4.54;100.00;99137.19;4533548;31;20087;-73
2023/01/22 11:15:18;;;;;;;15.52;7.72;;;;;;;4.74;100.00;99139.47;4519100;31;20125;-73
2023/01/22 11:17:49;;;;;;;15.07;7.87;;;;;;;4.78;100.00;99140.97;4533484;31;20091;-73
2023/01/22 11:20:26;;;;;;;17.08;8.02;;;;;;;4.74;100.00;99136.00;4519380;31;20158;-74
2023/01/22 11:23:03;;;;;;;17.37;8.10;;;;;;;4.79;100.00;99137.41;4533618;31;20087;-73
2023/01/22 11:25:38;;;;;;;16.37;8.32;;;;;;;4.54;100.00;99134.59;4532194;31;20124;-73
2023/01/22 11:28:19;;;;;;;30.62;10.75;;;;;;;4.80;100.00;99136.50;4532428;31;20092;-73
2023/01/22 11:31:12;;;;;;;22.33;9.55;;;;;;;4.83;100.00;99148.47;4532130;31;20117;-73
2023/01/22 11:34:07;;;;;;;12.05;7.10;;;;;;;4.64;100.00;99164.28;4532270;31;20126;-73
2023/01/22 11:36:50;;;;;;;14.80;7.60;;;;;;;4.52;100.00;99168.41;4533356;31;20158;-73
2023/01/22 11:39:47;;;;;;;16.75;8.25;;;;;;;4.61;100.00;99172.25;4532115;31;20139;-73
2023/01/22 11:42:26;;;;;;;15.30;7.30;;;;;;;4.62;100.00;99166.16;4533369;31;20087;-73
2023/01/22 11:45:21;;;;;;;14.30;7.43;;;;;;;4.54;100.00;99168.34;4533409;31;20129;-73
2023/01/22 11:48:16;;;;;;;15.00;8.25;;;;;;;4.85;100.00;99163.97;4533514;31;20157;-73